createdAt,value
2022-09-11T00:01:54.281Z,13.48
2022-09-11T00:04:26.827Z,13.35
2022-09-11T00:06:56.207Z,14.90
2022-09-11T00:09:25.957Z,13.10
2022-09-11T00:11:55.847Z,13.57
2022-09-11T00:14:26.436Z,13.38
2022-09-11T00:16:54.930Z,14.65
2022-09-11T00:19:24.524Z,13.73
2022-09-11T00:21:55.509Z,11.95
2022-09-11T00:24:26.276Z,13.70
2022-09-11T00:26:56.497Z,11.77
2022-09-11T00:29:26.166Z,11.82
2022-09-11T00:31:57.703Z,13.48
2022-09-11T00:34:27.765Z,11.65
2022-09-11T00:36:58.086Z,13.50
2022-09-11T00:39:27.025Z,13.88
2022-09-11T00:41:56.325Z,11.93
2022-09-11T00:44:25.163Z,12.13
2022-09-11T00:46:59.366Z,12.75
2022-09-11T00:49:37.106Z,12.85
2022-09-11T00:52:27.296Z,12.82
2022-09-11T00:55:00.077Z,13.13
2022-09-11T00:57:31.092Z,13.23
2022-09-11T01:00:00.493Z,13.82
2022-09-11T01:02:34.545Z,13.65
2022-09-11T01:05:03.115Z,16.15
2022-09-11T01:07:35.565Z,16.08
2022-09-11T01:10:08.248Z,15.43
2022-09-11T01:12:49.454Z,15.27
2022-09-11T01:15:27.118Z,14.27
2022-09-11T01:18:01.331Z,14.45
2022-09-11T01:20:31.082Z,15.77
2022-09-11T01:23:09.030Z,18.55
2022-09-11T01:25:36.939Z,16.92
2022-09-11T01:28:21.702Z,15.27
2022-09-11T01:30:54.859Z,15.88
2022-09-11T01:33:28.739Z,17.25
2022-09-11T01:36:07.609Z,18.95
2022-09-11T01:38:57.528Z,18.05
2022-09-11T01:41:46.114Z,18.17
2022-09-11T01:44:28.799Z,20.02
2022-09-11T01:46:59.460Z,20.48
2022-09-11T01:49:28.696Z,19.25
2022-09-11T01:52:02.905Z,20.58
2022-09-11T01:54:39.378Z,20.80
2022-09-11T01:57:10.595Z,22.13
2022-09-11T01:59:45.293Z,23.27
2022-09-11T02:02:15.252Z,22.52
2022-09-11T02:04:52.537Z,21.52
2022-09-11T02:07:26.391Z,22.88
2022-09-11T02:09:59.768Z,22.38
2022-09-11T02:12:40.870Z,26.13
2022-09-11T02:15:11.350Z,26.70
2022-09-11T02:17:58.469Z,24.15
2022-09-11T02:20:31.357Z,23.75
2022-09-11T02:22:59.880Z,29.60
2022-09-11T02:25:28.322Z,28.58
2022-09-11T02:27:58.909Z,25.50
2022-09-11T02:30:27.250Z,23.25
2022-09-11T02:33:05.256Z,26.08
2022-09-11T02:35:46.515Z,26.17
2022-09-11T02:38:23.099Z,29.70
2022-09-11T02:41:09.116Z,28.38
2022-09-11T02:43:47.407Z,27.60
2022-09-11T02:46:25.679Z,28.50
2022-09-11T02:49:00.169Z,27.25
2022-09-11T02:51:46.978Z,28.65
2022-09-11T02:54:17.256Z,32.15
2022-09-11T02:56:49.904Z,34.65
2022-09-11T02:59:24.429Z,33.72
2022-09-11T03:01:55.110Z,33.05
2022-09-11T03:04:26.572Z,31.95
2022-09-11T03:06:58.702Z,33.15
2022-09-11T03:09:27.781Z,37.17
2022-09-11T03:12:01.917Z,36.58
2022-09-11T03:14:32.196Z,33.25
2022-09-11T03:17:00.902Z,35.38
2022-09-11T03:19:30.579Z,36.83
2022-09-11T03:22:00.453Z,35.88
2022-09-11T03:24:30.524Z,36.42
2022-09-11T03:27:00.487Z,34.20
2022-09-11T03:29:33.610Z,37.70
2022-09-11T03:32:03.656Z,35.35
2022-09-11T03:34:34.769Z,35.78
2022-09-11T03:37:04.661Z,34.85
2022-09-11T03:39:35.174Z,34.10
2022-09-11T03:42:04.592Z,37.08
2022-09-11T03:44:34.464Z,35.70
2022-09-11T03:47:05.596Z,34.70
2022-09-11T03:49:37.897Z,35.03
2022-09-11T03:52:07.372Z,34.20
2022-09-11T03:54:35.864Z,33.90
2022-09-11T03:57:07.323Z,33.60
2022-09-11T03:59:40.163Z,33.55
2022-09-11T04:02:09.812Z,35.20
2022-09-11T04:04:38.262Z,33.33
2022-09-11T04:07:07.546Z,32.72
2022-09-11T04:09:37.118Z,33.45
2022-09-11T04:12:07.408Z,36.45
2022-09-11T04:14:37.472Z,35.85
2022-09-11T04:17:09.577Z,34.60
2022-09-11T04:19:40.016Z,34.42
2022-09-11T04:22:08.855Z,34.75
2022-09-11T04:24:42.718Z,37.08
2022-09-11T04:27:13.777Z,36.53
2022-09-11T04:29:43.064Z,34.80
2022-09-11T04:32:13.210Z,36.40
2022-09-11T04:34:43.086Z,35.00
2022-09-11T04:37:12.358Z,33.67
2022-09-11T04:39:42.131Z,36.42
2022-09-11T04:42:10.863Z,34.85
2022-09-11T04:44:42.668Z,37.40
2022-09-11T04:47:11.447Z,36.00
2022-09-11T04:49:43.102Z,35.70
2022-09-11T04:52:15.272Z,37.55
2022-09-11T04:54:46.163Z,38.17
2022-09-11T04:57:16.769Z,39.08
2022-09-11T04:59:47.982Z,37.38
2022-09-11T05:02:17.307Z,39.38
2022-09-11T05:04:52.468Z,37.13
2022-09-11T05:07:22.067Z,36.72
2022-09-11T05:09:54.442Z,43.72
2022-09-11T05:12:23.241Z,43.95
2022-09-11T05:14:53.172Z,40.13
2022-09-11T05:17:21.904Z,45.15
2022-09-11T05:19:50.935Z,43.50
2022-09-11T05:22:24.905Z,45.72
2022-09-11T05:24:58.315Z,46.15
2022-09-11T05:27:28.239Z,44.13
2022-09-11T05:29:57.400Z,42.30
2022-09-11T05:32:26.190Z,46.22
2022-09-11T05:34:56.575Z,47.92
2022-09-11T05:37:26.286Z,49.45
2022-09-11T05:39:56.899Z,48.05
2022-09-11T05:42:28.658Z,51.13
2022-09-11T05:44:57.376Z,47.90
2022-09-11T05:47:30.356Z,51.20
2022-09-11T05:49:59.195Z,47.35
2022-09-11T05:52:34.837Z,49.35
2022-09-11T05:55:05.806Z,54.30
2022-09-11T05:57:37.544Z,47.05
2022-09-11T06:00:06.729Z,48.40
2022-09-11T06:02:56.098Z,51.58
2022-09-11T06:05:29.961Z,51.00
2022-09-11T06:08:01.445Z,53.47
2022-09-11T06:10:33.028Z,51.15
2022-09-11T06:13:01.474Z,53.97
2022-09-11T06:15:46.107Z,54.78
2022-09-11T06:18:16.564Z,55.95
2022-09-11T06:20:55.734Z,58.00
2022-09-11T06:23:24.355Z,53.78
2022-09-11T06:26:02.873Z,52.72
2022-09-11T06:28:35.617Z,54.42
2022-09-11T06:31:05.139Z,54.92
2022-09-11T06:33:37.635Z,56.60
2022-09-11T06:36:11.565Z,55.10
2022-09-11T06:38:44.341Z,53.15
2022-09-11T06:41:16.768Z,52.67
2022-09-11T06:43:47.684Z,55.83
2022-09-11T06:46:19.972Z,52.80
2022-09-11T06:48:50.543Z,51.55
2022-09-11T06:51:24.522Z,51.20
2022-09-11T06:53:58.123Z,57.47
2022-09-11T06:56:32.444Z,56.47
2022-09-11T06:59:02.693Z,55.97
2022-09-11T07:01:35.314Z,52.50
2022-09-11T07:04:05.095Z,53.85
2022-09-11T07:06:38.576Z,58.42
2022-09-11T07:09:08.333Z,57.33
2022-09-11T07:12:00.493Z,54.58
2022-09-11T07:14:31.215Z,53.67
2022-09-11T07:17:09.428Z,52.10
2022-09-11T07:19:38.351Z,53.17
2022-09-11T07:22:08.243Z,54.97
2022-09-11T07:24:38.049Z,53.38
2022-09-11T07:27:07.042Z,53.17
2022-09-11T07:29:37.389Z,55.80
2022-09-11T07:32:05.598Z,54.35
2022-09-11T07:34:35.705Z,52.05
2022-09-11T07:37:07.914Z,54.10
2022-09-11T07:39:38.638Z,54.03
2022-09-11T07:42:12.645Z,53.17
2022-09-11T07:44:42.515Z,50.92
2022-09-11T07:47:13.933Z,52.70
2022-09-11T07:49:47.999Z,55.75
2022-09-11T07:52:20.497Z,53.75
2022-09-11T07:54:56.641Z,52.50
2022-09-11T07:57:35.112Z,55.90
2022-09-11T08:00:08.277Z,52.00
2022-09-11T08:03:07.712Z,52.95
2022-09-11T08:05:39.439Z,57.63
2022-09-11T08:08:11.152Z,55.53
2022-09-11T08:10:40.998Z,54.03
2022-09-11T08:13:12.008Z,52.55
2022-09-11T08:15:46.743Z,53.83
2022-09-11T08:18:16.888Z,57.97
2022-09-11T08:20:45.440Z,57.45
2022-09-11T08:23:14.771Z,53.95
2022-09-11T08:25:44.708Z,56.92
2022-09-11T08:28:15.072Z,52.15
2022-09-11T08:30:44.381Z,51.03
2022-09-11T08:33:23.597Z,50.90
2022-09-11T08:35:52.988Z,57.40
2022-09-11T08:38:22.511Z,61.00
2022-09-11T08:40:52.136Z,56.13
2022-09-11T08:43:32.590Z,59.25
2022-09-11T08:46:05.718Z,58.03
2022-09-11T08:48:47.949Z,54.03
2022-09-11T08:51:18.392Z,60.38
2022-09-11T08:53:47.270Z,55.65
2022-09-11T08:56:18.953Z,55.20
2022-09-11T08:59:08.266Z,52.88
2022-09-11T09:01:37.962Z,49.75
2022-09-11T09:04:13.820Z,49.97
2022-09-11T09:06:48.154Z,54.25
2022-09-11T09:09:16.113Z,53.42
2022-09-11T09:12:07.652Z,52.20
2022-09-11T09:14:54.560Z,54.08
2022-09-11T09:17:26.028Z,50.78
2022-09-11T09:20:00.472Z,53.85
2022-09-11T09:22:52.983Z,54.22
2022-09-11T09:25:23.599Z,51.97
2022-09-11T09:27:57.926Z,52.65
2022-09-11T09:30:28.217Z,57.22
2022-09-11T09:33:15.579Z,63.40
2022-09-11T09:35:45.274Z,52.30
2022-09-11T09:38:27.336Z,53.00
2022-09-11T09:41:14.796Z,49.28
2022-09-11T09:43:46.474Z,46.72
2022-09-11T09:46:41.735Z,48.50
2022-09-11T09:49:10.997Z,47.25
2022-09-11T09:51:39.740Z,47.85
2022-09-11T09:54:11.324Z,50.75
2022-09-11T09:56:43.098Z,48.22
2022-09-11T09:59:20.958Z,49.25
2022-09-11T10:01:51.012Z,50.72
2022-09-11T10:04:20.111Z,51.15
2022-09-11T10:06:50.333Z,50.33
2022-09-11T10:09:31.071Z,52.15
2022-09-11T10:12:04.053Z,49.05
2022-09-11T10:14:54.346Z,54.90
2022-09-11T10:17:30.387Z,50.42
2022-09-11T10:20:18.486Z,52.40
2022-09-11T10:22:47.376Z,49.75
2022-09-11T10:25:16.566Z,47.03
2022-09-11T10:28:03.346Z,49.20
2022-09-11T10:30:43.505Z,48.15
2022-09-11T10:33:23.046Z,48.45
2022-09-11T10:35:55.199Z,47.70
2022-09-11T10:38:32.898Z,46.22
2022-09-11T10:41:19.554Z,46.50
2022-09-11T10:43:48.294Z,48.30
2022-09-11T10:46:24.021Z,45.53
2022-09-11T10:48:55.215Z,44.25
2022-09-11T10:51:25.741Z,42.83
2022-09-11T10:54:09.878Z,52.65
2022-09-11T10:56:43.008Z,43.63
2022-09-11T10:59:18.380Z,44.55
2022-09-11T11:01:47.357Z,44.92
2022-09-11T11:04:17.076Z,41.40
2022-09-11T11:06:45.338Z,41.03
2022-09-11T11:09:35.863Z,36.60
2022-09-11T11:12:11.202Z,36.90
2022-09-11T11:14:48.594Z,35.22
2022-09-11T11:17:25.054Z,36.47
2022-09-11T11:19:53.236Z,37.33
2022-09-11T11:22:36.645Z,36.00
2022-09-11T11:25:07.531Z,40.63
2022-09-11T11:27:54.210Z,39.45
2022-09-11T11:30:23.996Z,40.05
2022-09-11T11:32:55.420Z,39.95
2022-09-11T11:35:23.497Z,36.95
2022-09-11T11:37:54.460Z,39.95
2022-09-11T11:40:28.149Z,39.75
2022-09-11T11:45:45.726Z,40.35
2022-09-11T11:48:20.588Z,38.20
2022-09-11T11:50:52.682Z,42.20
2022-09-11T11:53:25.125Z,33.08
2022-09-11T11:56:11.640Z,30.30
2022-09-11T11:58:43.068Z,28.63
2022-09-11T12:01:19.540Z,29.75
2022-09-11T12:04:03.745Z,26.83
2022-09-11T12:06:32.056Z,28.13
2022-09-11T12:09:00.356Z,27.65
2022-09-11T12:11:31.496Z,26.90
2022-09-11T12:14:00.724Z,27.23
2022-09-11T12:16:35.345Z,28.15
2022-09-11T12:19:19.666Z,29.58
2022-09-11T12:21:54.611Z,28.83
2022-09-11T12:24:25.531Z,28.98
2022-09-11T12:27:28.621Z,28.40
2022-09-11T12:30:08.197Z,29.17
2022-09-11T12:32:43.053Z,32.05
2022-09-11T12:35:19.716Z,30.15
2022-09-11T12:38:13.122Z,22.48
2022-09-11T12:40:47.526Z,19.70
2022-09-11T12:43:18.372Z,19.92
2022-09-11T12:45:48.427Z,18.90
2022-09-11T12:48:17.709Z,17.90
2022-09-11T12:50:50.161Z,18.52
2022-09-11T12:53:23.531Z,18.80
2022-09-11T12:55:56.357Z,19.75
2022-09-11T12:58:28.506Z,19.20
2022-09-11T13:01:03.523Z,18.43
2022-09-11T13:03:33.069Z,18.30
2022-09-11T13:06:04.143Z,18.15
2022-09-11T13:08:34.906Z,18.85
2022-09-11T13:11:25.576Z,19.23
2022-09-11T13:13:53.836Z,22.50
2022-09-11T13:16:26.596Z,23.98
2022-09-11T13:19:13.695Z,24.20
2022-09-11T13:21:42.766Z,23.17
2022-09-11T13:24:27.830Z,21.45
2022-09-11T13:27:10.333Z,20.15
2022-09-11T13:29:40.115Z,22.13
2022-09-11T13:32:11.381Z,21.38
2022-09-11T13:34:47.440Z,22.27
2022-09-11T13:37:26.474Z,22.05
2022-09-11T13:39:56.286Z,22.02
2022-09-11T13:42:25.766Z,21.45
2022-09-11T13:44:57.691Z,20.35
2022-09-11T13:47:28.127Z,20.15
2022-09-11T13:49:58.530Z,22.83
2022-09-11T13:52:29.230Z,20.23
2022-09-11T13:55:00.677Z,20.83
2022-09-11T13:57:32.587Z,21.35
2022-09-11T14:00:02.144Z,19.55
2022-09-11T14:02:50.834Z,21.60
2022-09-11T14:05:23.436Z,19.92
2022-09-11T14:07:56.465Z,16.45
2022-09-11T14:10:35.284Z,17.15
2022-09-11T14:13:18.018Z,18.05
2022-09-11T14:15:48.030Z,16.48
2022-09-11T14:18:24.624Z,17.42
2022-09-11T14:20:54.358Z,15.80
2022-09-11T14:23:27.322Z,15.88
2022-09-11T14:26:07.568Z,14.80
2022-09-11T14:28:42.879Z,14.70
2022-09-11T14:31:14.358Z,14.70
2022-09-11T14:33:42.463Z,15.27
2022-09-11T14:36:18.148Z,14.68
2022-09-11T14:38:47.589Z,13.65
2022-09-11T14:41:16.701Z,13.95
2022-09-11T14:43:49.379Z,14.25
2022-09-11T14:46:17.933Z,14.93
2022-09-11T14:48:47.054Z,14.13
2022-09-11T14:51:16.251Z,12.98
2022-09-11T14:53:45.947Z,13.13
2022-09-11T14:56:14.634Z,14.18
2022-09-11T14:58:43.306Z,12.95
2022-09-11T15:01:13.938Z,11.00
2022-09-11T15:03:49.630Z,13.40
2022-09-11T15:06:20.468Z,14.23
2022-09-11T15:08:49.020Z,12.88
2022-09-11T15:11:17.109Z,12.38
2022-09-11T15:14:10.856Z,12.55
2022-09-11T15:16:35.341Z,12.63
2022-09-11T15:19:07.016Z,13.38
2022-09-11T15:21:39.282Z,11.93
2022-09-11T15:24:09.883Z,14.88
2022-09-11T15:26:42.927Z,12.20
2022-09-11T15:29:11.524Z,12.23
2022-09-11T15:31:42.073Z,12.27
2022-09-11T15:34:12.751Z,12.63
2022-09-11T15:36:45.549Z,11.90
2022-09-11T15:39:15.347Z,12.15
2022-09-11T15:41:45.407Z,13.05
2022-09-11T15:44:19.967Z,12.77
2022-09-11T15:46:50.853Z,11.52
2022-09-11T15:49:21.708Z,11.40
2022-09-11T15:51:51.272Z,10.98
2022-09-11T15:54:25.139Z,11.75
2022-09-11T15:56:55.369Z,11.25
2022-09-11T15:59:23.687Z,11.52
2022-09-11T16:01:59.221Z,11.15
2022-09-11T16:04:32.270Z,11.00
2022-09-11T16:07:01.380Z,10.68
2022-09-11T16:09:32.429Z,11.52
2022-09-11T16:12:02.816Z,10.20
2022-09-11T16:14:33.768Z,10.25
2022-09-11T16:17:05.699Z,10.27
2022-09-11T16:19:34.501Z,11.27
2022-09-11T16:22:05.211Z,10.80
2022-09-11T16:24:37.377Z,9.90
2022-09-11T16:27:07.673Z,10.60
2022-09-11T16:30:09.112Z,11.55
2022-09-11T16:32:34.046Z,175.68
2022-09-11T16:35:03.435Z,86.85
2022-09-11T16:37:38.431Z,14.25
2022-09-11T16:40:08.353Z,14.32
2022-09-11T16:42:40.920Z,11.82
2022-09-11T16:45:10.744Z,13.68
2022-09-11T16:47:41.780Z,12.85
2022-09-11T16:50:10.547Z,12.60
2022-09-11T16:52:45.557Z,12.30
2022-09-11T16:55:14.298Z,11.38
2022-09-11T17:00:16.359Z,12.70
2022-09-11T17:03:03.861Z,12.73
2022-09-11T17:05:33.977Z,12.30
2022-09-11T17:08:04.268Z,13.20
2022-09-11T17:10:35.727Z,11.95
2022-09-11T17:13:04.434Z,12.77
2022-09-11T17:15:34.779Z,12.35
2022-09-11T17:18:05.181Z,12.10
2022-09-11T17:20:34.610Z,11.82
2022-09-11T17:23:04.094Z,10.98
2022-09-11T17:25:35.007Z,12.32
2022-09-11T17:28:05.419Z,12.20
2022-09-11T17:30:41.645Z,10.98
2022-09-11T17:33:20.781Z,10.80
2022-09-11T17:35:49.119Z,10.57
2022-09-11T17:38:25.232Z,10.27
2022-09-11T17:41:00.360Z,10.65
2022-09-11T17:43:35.287Z,11.15
2022-09-11T17:46:05.070Z,14.77
2022-09-11T17:48:36.232Z,17.85
2022-09-11T17:51:10.716Z,14.13
2022-09-11T17:53:42.706Z,13.10
2022-09-11T17:56:14.434Z,12.05
2022-09-11T17:58:50.091Z,11.43
2022-09-11T18:01:20.899Z,11.35
2022-09-11T18:03:56.536Z,10.98
2022-09-11T18:06:27.759Z,11.43
2022-09-11T18:09:01.777Z,11.55
2022-09-11T18:11:32.908Z,11.57
2022-09-11T18:14:02.284Z,33.45
2022-09-11T18:16:31.735Z,12.60
2022-09-11T18:19:00.084Z,12.60
2022-09-11T18:21:29.119Z,12.32
2022-09-11T18:24:04.717Z,12.98
2022-09-11T18:26:36.570Z,12.02
2022-09-11T18:29:10.420Z,13.13
2022-09-11T18:31:41.426Z,13.05
2022-09-11T18:34:15.522Z,14.15
2022-09-11T18:36:45.169Z,13.43
2022-09-11T18:39:16.729Z,13.38
2022-09-11T18:41:45.586Z,12.65
2022-09-11T18:44:19.290Z,13.07
2022-09-11T18:46:48.471Z,13.40
2022-09-11T18:49:19.925Z,13.48
2022-09-11T18:51:57.148Z,12.63
2022-09-11T18:54:27.526Z,12.70
2022-09-11T18:57:00.296Z,12.93
2022-09-11T18:59:30.959Z,13.18
2022-09-11T19:02:03.254Z,13.02
2022-09-11T19:04:35.017Z,13.65
2022-09-11T19:07:15.879Z,13.98
2022-09-11T19:09:50.273Z,12.75
2022-09-11T19:12:19.423Z,14.73
2022-09-11T19:14:49.077Z,14.32
2022-09-11T19:17:18.613Z,14.20
2022-09-11T19:19:47.393Z,14.18
2022-09-11T19:22:15.676Z,15.45
2022-09-11T19:24:44.880Z,15.15
2022-09-11T19:27:13.376Z,15.27
2022-09-11T19:29:43.153Z,15.75
2022-09-11T19:32:13.072Z,15.45
2022-09-11T19:34:47.001Z,15.82
2022-09-11T19:37:20.124Z,15.80
2022-09-11T19:39:52.016Z,16.95
2022-09-11T19:42:20.999Z,16.45
2022-09-11T19:44:57.890Z,16.95
2022-09-11T19:47:29.368Z,17.25
2022-09-11T19:50:00.227Z,16.52
2022-09-11T19:52:32.999Z,17.92
2022-09-11T19:55:03.869Z,19.65
2022-09-11T19:57:36.543Z,18.77
2022-09-11T20:00:05.189Z,18.23
2022-09-11T20:02:52.688Z,19.60
2022-09-11T20:05:21.226Z,17.98
2022-09-11T20:07:57.558Z,18.48
2022-09-11T20:10:27.695Z,18.52
2022-09-11T20:13:00.533Z,19.40
2022-09-11T20:15:35.683Z,19.77
2022-09-11T20:18:09.654Z,19.77
2022-09-11T20:20:41.218Z,21.70
2022-09-11T20:23:20.696Z,20.70
2022-09-11T20:25:49.117Z,20.35
2022-09-11T20:28:19.269Z,19.80
2022-09-11T20:30:50.204Z,20.67
2022-09-11T20:33:24.575Z,19.77
2022-09-11T20:35:52.814Z,20.80
2022-09-11T20:38:23.150Z,20.92
2022-09-11T20:40:53.993Z,21.27
2022-09-11T20:43:23.023Z,21.63
2022-09-11T20:45:51.881Z,22.75
2022-09-11T20:48:22.970Z,22.23
2022-09-11T20:50:53.033Z,24.00
2022-09-11T20:53:23.117Z,23.00
2022-09-11T20:55:51.517Z,24.10
2022-09-11T20:58:20.386Z,23.85
2022-09-11T21:00:48.796Z,25.85
2022-09-11T21:03:36.320Z,26.23
2022-09-11T21:06:10.150Z,25.65
2022-09-11T21:08:44.199Z,25.25
2022-09-11T21:11:13.684Z,25.20
2022-09-11T21:13:43.163Z,25.77
2022-09-11T21:16:13.930Z,24.98
2022-09-11T21:18:47.627Z,25.15
2022-09-11T21:21:16.310Z,25.67
2022-09-11T21:23:44.854Z,25.30
2022-09-11T21:26:15.882Z,25.55
2022-09-11T21:28:46.685Z,26.00
2022-09-11T21:31:17.010Z,24.60
2022-09-11T21:33:47.007Z,26.33
2022-09-11T21:36:17.220Z,25.83
2022-09-11T21:38:49.365Z,25.48
2022-09-11T21:41:19.959Z,25.35
2022-09-11T21:43:49.614Z,24.38
2022-09-11T21:46:18.477Z,25.38
2022-09-11T21:48:47.062Z,25.60
2022-09-11T21:51:16.495Z,25.10
2022-09-11T21:53:46.879Z,25.17
2022-09-11T21:56:17.240Z,26.00
2022-09-11T21:58:45.700Z,24.92
2022-09-11T22:01:14.357Z,23.27
2022-09-11T22:03:51.826Z,24.38
2022-09-11T22:06:23.694Z,25.73
2022-09-11T22:08:52.362Z,25.00
2022-09-11T22:11:21.266Z,23.35
2022-09-11T22:13:50.251Z,24.00
2022-09-11T22:16:19.474Z,24.15
2022-09-11T22:18:52.231Z,24.38
2022-09-11T22:21:23.151Z,24.05
2022-09-11T22:23:52.353Z,23.52
2022-09-11T22:26:24.424Z,24.52
2022-09-11T22:28:53.295Z,24.90
2022-09-11T22:31:24.161Z,25.27
2022-09-11T22:33:53.856Z,25.50
2022-09-11T22:36:25.215Z,24.55
2022-09-11T22:38:53.824Z,25.38
2022-09-11T22:41:22.229Z,24.90
2022-09-11T22:43:50.712Z,25.52
2022-09-11T22:46:20.666Z,25.30
2022-09-11T22:48:49.900Z,25.58
2022-09-11T22:51:19.746Z,26.60
2022-09-11T22:53:51.840Z,25.85
2022-09-11T22:56:22.255Z,23.83
2022-09-11T22:58:52.892Z,23.92
2022-09-11T23:01:22.708Z,24.75
2022-09-11T23:04:02.467Z,23.50
2022-09-11T23:06:53.144Z,24.67
2022-09-11T23:09:23.213Z,23.90
2022-09-11T23:11:52.133Z,23.23
2022-09-11T23:14:24.401Z,26.05
2022-09-11T23:16:53.313Z,23.17
2022-09-11T23:19:30.394Z,23.70
2022-09-11T23:21:59.609Z,23.23
2022-09-11T23:24:30.291Z,24.98
2022-09-11T23:27:00.044Z,22.92
2022-09-11T23:29:28.574Z,23.40
2022-09-11T23:31:57.633Z,25.55
2022-09-11T23:34:28.565Z,23.60
2022-09-11T23:36:57.854Z,23.20
2022-09-11T23:39:28.588Z,24.80
2022-09-11T23:41:58.216Z,23.17
2022-09-11T23:44:27.442Z,24.80
2022-09-11T23:46:57.222Z,22.42
2022-09-11T23:49:26.418Z,23.45
2022-09-11T23:51:56.557Z,24.60
2022-09-11T23:54:25.141Z,21.92
2022-09-11T23:56:53.751Z,23.65
2022-09-11T23:59:22.597Z,25.00
